LIMZ/CUF METAR and TAF weather

Enter ICAO airport designator
Station Type Date Time Source
LIMZ METAR 2018/12/12 06:50 UTC NOAA

LIMZ 120650Z VRB02KT 9999 BKN050 01/M04 Q1019


Station Type Date Time Source
LIMZ Decoded METAR 2018/12/12 06:50 UTC NOAA

Cuneo / Levaldigi, Italy (LIMZ) 44-32-47N 007-37-20E
Dec 12, 2018 - 01:50 AM EST / 2018.12.12 0650 UTC
Wind: Variable at 2 MPH (2 KT):0
Visibility: greater than 7 mile(s):0
Sky conditions: mostly cloudy
Temperature: 33 F (1 C)
Dew Point: 24 F (-4 C)
Relative Humidity: 69%
Pressure (altimeter): 30.09 in. Hg (1019 hPa)
ob: LIMZ 120650Z VRB02KT 9999 BKN050 01/M04 Q1019
cycle: 7

Station Type Date Time Source
LIMZ TAF 2018/12/12 06:21 UTC NOAA

TAF LIMZ 120500Z 1206/1306 VRB05KT 9999 SCT050


Example: see airport list